Time;durP1;ratioP1;P1;durP2;ratioP2;P2;SDS_P1;SDS_P2;PMS_P1;PMS_P2;Temp;Humidity;BMP_temperature;BMP_pressure;BME280_temperature;BME280_humidity;BME280_pressure;Samples;Min_cycle;Max_cycle;Signal;HPM_P1;HPM_P2
2023/01/22 00:01:55;;;;;;;22.90;11.70;;;2.10;99.90;;;;;;5088239;28;20177;-74
2023/01/22 00:04:20;;;;;;;20.93;8.97;;;2.10;99.90;;;;;;5072307;28;20181;-73
2023/01/22 00:06:46;;;;;;;22.53;11.13;;;2.20;99.90;;;;;;5072324;28;20298;-72
2023/01/22 00:09:11;;;;;;;17.40;10.13;;;2.20;99.90;;;;;;5087953;28;20745;-73
2023/01/22 00:11:37;;;;;;;19.93;9.77;;;2.20;99.90;;;;;;5072345;28;20174;-74
2023/01/22 00:14:02;;;;;;;13.57;9.03;;;2.20;99.90;;;;;;5072064;28;20664;-73
2023/01/22 00:16:28;;;;;;;18.73;10.77;;;2.20;99.90;;;;;;5071958;28;20173;-74
2023/01/22 00:18:53;;;;;;;18.00;11.00;;;2.20;99.90;;;;;;5071842;28;20204;-73
2023/01/22 00:21:19;;;;;;;17.00;9.10;;;2.10;99.90;;;;;;5087658;28;20186;-74
2023/01/22 00:23:44;;;;;;;15.90;9.10;;;2.20;99.90;;;;;;5072264;28;20172;-73
2023/01/22 00:26:14;;;;;;;14.37;9.90;;;2.30;99.90;;;;;;5071771;28;20177;-72
2023/01/22 00:28:40;;;;;;;25.70;12.50;;;2.30;99.90;;;;;;5071918;28;20194;-71
2023/01/22 00:31:06;;;;;;;19.00;9.50;;;2.30;99.90;;;;;;5072275;28;20404;-71
2023/01/22 00:33:32;;;;;;;16.93;8.67;;;2.20;99.90;;;;;;5070834;28;20748;-71
2023/01/22 00:36:06;;;;;;;18.20;10.13;;;2.30;99.90;;;;;;5071938;28;20162;-71
2023/01/22 00:38:31;;;;;;;18.20;10.10;;;2.30;99.90;;;;;;5071713;28;20496;-72
2023/01/22 00:41:05;;;;;;;17.27;9.73;;;2.40;99.90;;;;;;5071681;28;20778;-73
2023/01/22 00:43:32;;;;;;;19.50;10.27;;;2.40;99.90;;;;;;5071860;28;20166;-72
2023/01/22 00:45:58;;;;;;;21.53;8.60;;;2.40;99.90;;;;;;5071691;28;20403;-72
2023/01/22 00:48:24;;;;;;;16.93;10.77;;;2.50;99.90;;;;;;5071695;28;20785;-72
2023/01/22 00:50:49;;;;;;;15.73;10.50;;;2.50;99.90;;;;;;5071861;28;20457;-72
2023/01/22 00:53:15;;;;;;;21.63;10.60;;;2.60;99.90;;;;;;5071539;28;20227;-72
2023/01/22 00:55:50;;;;;;;22.23;10.17;;;2.60;99.90;;;;;;5071356;28;20219;-72
2023/01/22 00:58:15;;;;;;;16.17;9.17;;;2.60;99.90;;;;;;5071772;28;20177;-72
2023/01/22 01:00:41;;;;;;;17.80;10.50;;;2.50;99.90;;;;;;5071752;28;21031;-72
2023/01/22 01:05:50;;;;;;;18.40;9.93;;;2.50;99.90;;;;;;5071364;28;20228;-72
2023/01/22 01:08:16;;;;;;;20.73;9.80;;;2.50;99.90;;;;;;5070233;28;20949;-72
2023/01/22 01:10:41;;;;;;;17.13;9.27;;;2.40;99.90;;;;;;5071451;28;20217;-73
2023/01/22 01:13:07;;;;;;;10.97;7.80;;;2.30;99.90;;;;;;5071695;28;20259;-73
2023/01/22 01:15:33;;;;;;;14.27;9.10;;;2.30;99.90;;;;;;5071283;28;20304;-73
2023/01/22 01:17:59;;;;;;;17.43;8.83;;;2.20;99.90;;;;;;5071194;28;20669;-74
2023/01/22 01:20:24;;;;;;;13.80;9.97;;;2.20;99.90;;;;;;5071647;28;20491;-73
2023/01/22 01:22:50;;;;;;;13.53;8.70;;;2.20;99.90;;;;;;5071393;28;20174;-72
2023/01/22 01:25:15;;;;;;;14.20;8.40;;;2.20;99.90;;;;;;5072238;28;20198;-74
2023/01/22 01:27:41;;;;;;;19.37;10.03;;;2.20;99.90;;;;;;5075372;28;20201;-73
2023/01/22 01:30:07;;;;;;;18.70;8.53;;;2.20;99.90;;;;;;5075168;28;20209;-72
2023/01/22 01:32:33;;;;;;;13.83;8.60;;;2.20;99.90;;;;;;5075129;28;20177;-72
2023/01/22 01:34:58;;;;;;;13.10;10.10;;;2.30;99.90;;;;;;5075078;28;20404;-72
2023/01/22 01:37:24;;;;;;;18.63;10.10;;;2.20;99.90;;;;;;5075080;28;20243;-72
2023/01/22 01:39:51;;;;;;;20.90;10.00;;;2.30;99.90;;;;;;5075206;28;20178;-72
2023/01/22 01:42:29;;;;;;;14.37;9.20;;;2.30;99.90;;;;;;5090717;28;20238;-73
2023/01/22 01:45:30;;;;;;;19.23;9.70;;;2.30;99.90;;;;;;5073501;28;20435;-72
2023/01/22 01:48:05;;;;;;;21.23;11.73;;;2.30;99.90;;;;;;5075009;28;20423;-73
2023/01/22 01:50:32;;;;;;;16.73;10.80;;;2.20;99.90;;;;;;5074867;28;20455;-72
2023/01/22 01:52:59;;;;;;;23.00;10.70;;;2.20;99.90;;;;;;5074881;28;20751;-71
2023/01/22 01:55:28;;;;;;;19.97;10.13;;;2.20;99.90;;;;;;5074476;28;20420;-72
2023/01/22 01:57:58;;;;;;;24.67;11.20;;;2.20;99.90;;;;;;5075003;28;20427;-72
2023/01/22 02:00:28;;;;;;;19.10;12.00;;;2.30;99.90;;;;;;5074783;28;20404;-72
2023/01/22 02:02:54;;;;;;;18.43;11.80;;;2.20;99.90;;;;;;5073668;28;20827;-72
2023/01/22 02:05:21;;;;;;;17.63;10.13;;;2.30;99.90;;;;;;5074346;28;20485;-73
2023/01/22 02:07:47;;;;;;;23.33;10.70;;;2.30;99.90;;;;;;5074523;28;20440;-74
2023/01/22 02:10:12;;;;;;;18.77;9.90;;;2.20;99.90;;;;;;5090339;28;20601;-73
2023/01/22 02:12:38;;;;;;;20.73;12.57;;;2.20;99.90;;;;;;5073336;28;20219;-73
2023/01/22 02:15:05;;;;;;;18.63;9.80;;;2.20;99.90;;;;;;5090036;28;20170;-72
2023/01/22 02:17:30;;;;;;;18.30;10.47;;;2.20;99.90;;;;;;5074088;28;20186;-72
2023/01/22 02:19:56;;;;;;;16.10;10.40;;;2.30;99.90;;;;;;5074573;28;20414;-72
2023/01/22 02:22:31;;;;;;;16.00;11.57;;;2.20;99.90;;;;;;5074558;28;20259;-70
2023/01/22 02:24:57;;;;;;;17.93;10.50;;;2.20;99.90;;;;;;5074314;28;20165;-71
2023/01/22 02:27:23;;;;;;;18.73;11.77;;;2.30;99.90;;;;;;5074113;28;20432;-71
2023/01/22 02:29:49;;;;;;;15.47;10.07;;;2.30;99.90;;;;;;5073888;28;20821;-74
2023/01/22 02:32:15;;;;;;;18.30;10.83;;;2.20;99.90;;;;;;5074373;28;20174;-74
2023/01/22 02:34:40;;;;;;;19.67;10.80;;;2.30;99.90;;;;;;5073980;28;20170;-72
2023/01/22 02:37:06;;;;;;;16.90;9.37;;;2.30;99.90;;;;;;5074027;28;20177;-71
2023/01/22 02:39:32;;;;;;;22.80;11.50;;;2.20;99.90;;;;;;5074067;28;20870;-71
2023/01/22 02:41:58;;;;;;;21.60;10.37;;;2.20;99.90;;;;;;5074080;28;20514;-72
2023/01/22 02:44:23;;;;;;;12.23;8.57;;;2.20;99.90;;;;;;5074002;28;20236;-71
2023/01/22 02:46:49;;;;;;;15.50;9.10;;;2.20;99.90;;;;;;5074136;28;20201;-71
2023/01/22 02:49:14;;;;;;;21.30;11.77;;;2.20;99.90;;;;;;5072721;28;20226;-71
2023/01/22 02:51:40;;;;;;;18.10;11.30;;;2.20;99.90;;;;;;5073874;28;20170;-71
2023/01/22 02:54:05;;;;;;;16.97;10.13;;;2.20;99.90;;;;;;5073918;28;20268;-72
2023/01/22 02:56:33;;;;;;;17.87;10.70;;;2.20;99.90;;;;;;5073499;28;20249;-72
2023/01/22 02:59:02;;;;;;;16.43;10.07;;;2.10;99.90;;;;;;5073895;28;20648;-72
2023/01/22 03:01:28;;;;;;;17.50;11.57;;;2.10;99.90;;;;;;5073740;28;20422;-72
2023/01/22 03:03:56;;;;;;;16.60;10.77;;;2.10;99.90;;;;;;5073854;28;20404;-72
2023/01/22 03:06:24;;;;;;;15.13;9.50;;;2.10;99.90;;;;;;5073159;28;20190;-72
2023/01/22 03:08:53;;;;;;;11.87;9.10;;;2.10;99.90;;;;;;5073570;28;20460;-71
2023/01/22 03:11:19;;;;;;;15.60;9.60;;;2.10;99.90;;;;;;5072296;28;20430;-73
2023/01/22 03:22:00;;;;;;;21.03;11.10;;;2.20;99.90;;;;;;5073642;28;20503;-73
2023/01/22 03:24:25;;;;;;;19.07;10.40;;;2.10;99.90;;;;;;5073009;28;20454;-73
2023/01/22 03:26:51;;;;;;;16.37;10.70;;;2.10;99.90;;;;;;5073529;28;20174;-73
2023/01/22 03:29:16;;;;;;;19.93;10.67;;;2.20;99.90;;;;;;5072976;28;20226;-73
2023/01/22 03:31:46;;;;;;;20.13;10.57;;;2.20;99.90;;;;;;5072943;28;20204;-74
2023/01/22 03:34:16;;;;;;;19.50;11.73;;;2.20;99.90;;;;;;5073006;28;20162;-73
2023/01/22 03:36:42;;;;;;;19.80;10.53;;;2.20;99.90;;;;;;5073114;28;20825;-72
2023/01/22 03:39:07;;;;;;;22.30;11.17;;;2.20;99.90;;;;;;5072899;28;20547;-72
2023/01/22 03:41:33;;;;;;;24.43;11.40;;;2.20;99.90;;;;;;5072780;28;20257;-72
2023/01/22 03:44:02;;;;;;;16.53;9.00;;;2.20;99.90;;;;;;5072936;28;20178;-72
2023/01/22 03:46:29;;;;;;;15.70;10.70;;;2.30;99.90;;;;;;5072347;28;20252;-72
2023/01/22 03:48:55;;;;;;;17.27;10.20;;;2.30;99.90;;;;;;5072324;28;20464;-72
2023/01/22 03:51:24;;;;;;;13.90;9.37;;;2.30;99.90;;;;;;5072668;28;20392;-73
2023/01/22 03:53:49;;;;;;;14.77;10.10;;;2.30;99.90;;;;;;5068122;28;20414;-73
2023/01/22 03:56:20;;;;;;;19.90;10.83;;;2.30;99.90;;;;;;5052462;28;20882;-71
2023/01/22 03:58:47;;;;;;;20.70;10.07;;;2.40;99.90;;;;;;5052830;28;20244;-71
2023/01/22 04:01:19;;;;;;;16.67;9.57;;;2.30;99.90;;;;;;5052669;28;20586;-73
2023/01/22 04:03:45;;;;;;;21.90;11.80;;;2.30;99.90;;;;;;5052816;28;20754;-72
2023/01/22 04:06:12;;;;;;;20.70;9.20;;;2.40;99.90;;;;;;5060400;28;20419;-71
2023/01/22 04:08:40;;;;;;;13.97;9.00;;;2.30;99.90;;;;;;5072318;28;20186;-71
2023/01/22 04:11:06;;;;;;;17.30;10.47;;;2.30;99.90;;;;;;5072554;28;20432;-72
2023/01/22 04:13:33;;;;;;;17.80;10.70;;;2.30;99.90;;;;;;5072466;28;20785;-71
2023/01/22 04:15:59;;;;;;;19.40;10.50;;;2.30;99.90;;;;;;5072139;28;20413;-72
2023/01/22 04:18:24;;;;;;;21.23;11.00;;;2.40;99.90;;;;;;5071919;28;20513;-72
2023/01/22 04:20:51;;;;;;;15.77;9.43;;;2.40;99.90;;;;;;5087922;28;20170;-71
2023/01/22 04:23:18;;;;;;;20.37;9.33;;;2.30;99.90;;;;;;5072303;28;20542;-71
2023/01/22 04:25:44;;;;;;;14.37;9.03;;;2.40;99.90;;;;;;5072000;28;20412;-73
2023/01/22 04:28:10;;;;;;;12.23;9.20;;;2.40;99.90;;;;;;5072037;28;20420;-71
2023/01/22 04:30:37;;;;;;;25.60;11.53;;;2.40;99.90;;;;;;5071929;28;20456;-73
2023/01/22 04:33:03;;;;;;;21.13;11.67;;;2.40;99.90;;;;;;5072231;28;20454;-73
2023/01/22 04:35:29;;;;;;;17.83;11.43;;;2.40;99.90;;;;;;5071853;28;20440;-71
2023/01/22 04:37:55;;;;;;;13.83;9.20;;;2.40;99.90;;;;;;5071758;28;20479;-71
2023/01/22 04:40:20;;;;;;;18.83;9.97;;;2.40;99.90;;;;;;5071262;28;20210;-70
2023/01/22 04:42:46;;;;;;;18.80;9.90;;;2.50;99.90;;;;;;5071208;28;20205;-71
2023/01/22 04:45:12;;;;;;;16.83;11.60;;;2.50;99.90;;;;;;5071025;28;20166;-70
2023/01/22 04:47:46;;;;;;;21.60;10.67;;;2.40;99.90;;;;;;5071189;28;20193;-71
2023/01/22 04:50:17;;;;;;;15.43;11.07;;;2.40;99.90;;;;;;5070981;28;20243;-71
2023/01/22 04:52:42;;;;;;;16.23;10.23;;;2.40;99.90;;;;;;5071170;28;20421;-73
2023/01/22 04:55:09;;;;;;;19.83;10.23;;;2.40;99.90;;;;;;5086168;28;20421;-73
2023/01/22 04:57:34;;;;;;;16.40;10.30;;;2.40;99.90;;;;;;5070885;28;20186;-74
2023/01/22 05:00:00;;;;;;;12.93;8.67;;;2.40;99.90;;;;;;5069728;28;20917;-72
2023/01/22 05:02:25;;;;;;;15.23;10.47;;;2.40;99.90;;;;;;5070913;28;20531;-74
2023/01/22 05:04:51;;;;;;;16.10;10.93;;;2.40;99.90;;;;;;5070634;28;20776;-72
2023/01/22 05:07:16;;;;;;;15.60;9.97;;;2.40;99.90;;;;;;5070596;28;20547;-72
2023/01/22 05:09:42;;;;;;;14.00;9.70;;;2.40;99.90;;;;;;5070815;28;20706;-73
2023/01/22 05:12:07;;;;;;;21.90;9.90;;;2.40;99.90;;;;;;5070832;28;20170;-72
2023/01/22 05:14:33;;;;;;;11.40;8.83;;;2.40;99.90;;;;;;5070359;28;20196;-73
2023/01/22 05:16:58;;;;;;;18.80;11.57;;;2.40;99.90;;;;;;5070769;28;20177;-73
2023/01/22 05:19:24;;;;;;;15.13;10.17;;;2.40;99.90;;;;;;5070299;28;20281;-72
2023/01/22 05:21:49;;;;;;;13.63;10.03;;;2.40;99.90;;;;;;5070898;28;20173;-71
2023/01/22 05:24:17;;;;;;;17.80;9.80;;;2.30;99.90;;;;;;5070405;28;20554;-72
2023/01/22 05:26:42;;;;;;;12.97;8.00;;;2.30;99.90;;;;;;5070668;28;20188;-73
2023/01/22 05:29:08;;;;;;;15.40;9.53;;;2.30;99.90;;;;;;5069216;28;20460;-72
2023/01/22 05:31:33;;;;;;;14.00;10.40;;;2.30;99.90;;;;;;5070131;28;20185;-72
2023/01/22 05:33:59;;;;;;;13.67;9.30;;;2.30;99.90;;;;;;5070522;28;20170;-71
2023/01/22 05:36:24;;;;;;;12.50;8.20;;;2.30;99.90;;;;;;5070314;28;20175;-70
2023/01/22 05:38:50;;;;;;;33.77;20.73;;;2.30;99.90;;;;;;5032825;28;1057927;-72
2023/01/22 05:41:15;;;;;;;16.27;10.73;;;2.30;99.90;;;;;;5071426;28;20179;-72
2023/01/22 05:43:41;;;;;;;15.23;7.70;;;2.30;99.90;;;;;;5071517;28;20174;-72
2023/01/22 05:46:06;;;;;;;16.43;9.00;;;2.30;99.90;;;;;;5071172;28;20166;-73
2023/01/22 05:48:32;;;;;;;11.10;8.27;;;2.30;99.90;;;;;;5071256;28;20247;-73
2023/01/22 05:51:03;;;;;;;14.07;9.50;;;2.30;99.90;;;;;;5071332;28;20178;-72
2023/01/22 05:53:28;;;;;;;15.37;8.60;;;2.20;99.90;;;;;;5071260;28;20761;-73
2023/01/22 05:55:58;;;;;;;17.07;9.10;;;2.30;99.90;;;;;;5071016;28;20488;-73
2023/01/22 05:58:23;;;;;;;14.20;8.67;;;2.30;99.90;;;;;;5071293;28;20273;-73
2023/01/22 06:00:51;;;;;;;17.07;10.50;;;2.30;99.90;;;;;;5071089;28;20546;-73
2023/01/22 06:03:17;;;;;;;15.33;9.67;;;2.30;99.90;;;;;;5071166;28;20256;-72
2023/01/22 06:05:42;;;;;;;12.60;9.00;;;2.30;99.90;;;;;;5064571;28;20512;-72
2023/01/22 06:08:08;;;;;;;12.17;8.10;;;2.30;99.90;;;;;;5050926;28;20524;-73
2023/01/22 06:10:33;;;;;;;24.13;14.00;;;2.30;99.90;;;;;;5052216;28;20203;-71
2023/01/22 06:12:59;;;;;;;16.07;9.83;;;2.30;99.90;;;;;;5054817;28;20171;-71
2023/01/22 06:15:25;;;;;;;19.30;10.37;;;2.40;99.90;;;;;;5054382;28;20245;-71
2023/01/22 06:17:50;;;;;;;14.93;9.10;;;2.30;99.90;;;;;;5075057;28;20190;-71
2023/01/22 06:20:16;;;;;;;12.20;8.23;;;2.30;99.90;;;;;;5072824;28;20180;-71
2023/01/22 06:22:41;;;;;;;11.60;7.77;;;2.40;99.90;;;;;;5073260;28;20212;-71
2023/01/22 06:25:08;;;;;;;14.93;9.10;;;2.40;99.90;;;;;;5074108;28;20178;-72
2023/01/22 06:27:34;;;;;;;14.40;9.03;;;2.30;99.90;;;;;;5074432;28;20665;-72
2023/01/22 06:29:59;;;;;;;13.10;8.40;;;2.40;99.90;;;;;;5069056;28;20556;-72
2023/01/22 06:32:25;;;;;;;10.43;7.00;;;2.30;99.90;;;;;;5054360;28;20431;-72
2023/01/22 06:34:51;;;;;;;14.13;9.07;;;2.30;99.90;;;;;;5054143;28;20171;-71
2023/01/22 06:37:16;;;;;;;12.03;7.30;;;2.40;99.90;;;;;;5054105;28;20544;-72
2023/01/22 06:39:42;;;;;;;16.03;10.97;;;2.40;99.90;;;;;;5054156;28;20190;-72
2023/01/22 06:42:07;;;;;;;10.17;8.67;;;2.40;99.90;;;;;;5072730;28;20182;-72
2023/01/22 06:44:33;;;;;;;15.93;9.57;;;2.30;99.90;;;;;;5073957;28;20167;-73
2023/01/22 06:46:58;;;;;;;11.00;8.23;;;2.40;99.90;;;;;;5073970;28;20174;-73
2023/01/22 06:49:24;;;;;;;11.80;7.93;;;2.40;99.90;;;;;;5061051;28;20210;-73
2023/01/22 06:51:49;;;;;;;17.07;9.87;;;2.40;99.90;;;;;;5052731;28;20177;-73
2023/01/22 06:54:15;;;;;;;12.83;9.50;;;2.40;99.90;;;;;;5053622;28;20175;-73
2023/01/22 06:56:40;;;;;;;15.27;8.87;;;2.40;99.90;;;;;;5052798;28;20658;-73
2023/01/22 06:59:06;;;;;;;15.80;10.50;;;2.40;99.90;;;;;;5062579;28;20208;-73
2023/01/22 07:01:32;;;;;;;17.30;9.40;;;2.40;99.90;;;;;;5073857;28;20294;-73
2023/01/22 07:03:57;;;;;;;13.83;8.43;;;2.40;99.90;;;;;;5073396;28;20174;-72
2023/01/22 07:06:23;;;;;;;11.13;8.00;;;2.30;99.90;;;;;;5073555;28;20177;-71
2023/01/22 07:08:49;;;;;;;13.83;9.40;;;2.30;99.90;;;;;;5060391;28;20225;-72
2023/01/22 07:11:15;;;;;;;16.43;9.80;;;2.30;99.90;;;;;;5053633;28;20650;-72
2023/01/22 07:13:41;;;;;;;11.23;7.97;;;2.40;99.90;;;;;;5053697;28;20455;-72
2023/01/22 07:16:07;;;;;;;16.50;9.80;;;2.30;99.90;;;;;;5051749;28;20440;-72
2023/01/22 07:18:32;;;;;;;17.07;10.10;;;2.40;99.90;;;;;;5063528;28;21040;-72
2023/01/22 07:21:04;;;;;;;13.50;9.80;;;2.40;99.90;;;;;;5073472;28;20657;-72
2023/01/22 07:23:30;;;;;;;13.70;8.70;;;2.40;99.90;;;;;;5072502;28;20186;-72
2023/01/22 07:25:56;;;;;;;12.20;8.60;;;2.40;99.90;;;;;;5073013;28;20766;-73
2023/01/22 07:28:22;;;;;;;15.13;8.80;;;2.40;99.90;;;;;;5073224;28;20432;-73
2023/01/22 07:30:47;;;;;;;13.80;9.43;;;2.50;99.90;;;;;;5061834;28;20191;-73
2023/01/22 07:33:14;;;;;;;14.30;9.10;;;2.50;99.90;;;;;;5053297;28;20171;-72
2023/01/22 07:35:40;;;;;;;14.43;9.60;;;2.50;99.90;;;;;;5052983;28;20163;-73
2023/01/22 07:38:06;;;;;;;13.50;9.47;;;2.50;99.90;;;;;;5052902;28;20453;-73
2023/01/22 07:40:32;;;;;;;13.80;9.40;;;2.50;99.90;;;;;;5053205;28;20832;-73
2023/01/22 07:42:58;;;;;;;11.73;9.40;;;2.50;99.90;;;;;;5063804;28;20435;-73
2023/01/22 07:45:24;;;;;;;12.67;10.20;;;2.50;99.90;;;;;;5072610;28;20408;-73
2023/01/22 07:47:56;;;;;;;11.77;8.53;;;2.60;99.90;;;;;;5072843;28;20190;-73
2023/01/22 07:50:23;;;;;;;11.50;9.00;;;2.60;99.90;;;;;;5072726;28;20444;-73
2023/01/22 07:52:49;;;;;;;15.70;9.10;;;2.60;99.90;;;;;;5072730;28;20461;-73
2023/01/22 07:55:15;;;;;;;16.17;9.80;;;2.70;99.90;;;;;;5056455;28;20417;-73
2023/01/22 07:57:40;;;;;;;13.77;9.70;;;2.70;99.90;;;;;;5052732;28;20714;-73
2023/01/22 08:00:09;;;;;;;11.20;8.57;;;2.70;99.90;;;;;;5051435;28;20408;-73
2023/01/22 08:02:35;;;;;;;14.23;9.67;;;2.70;99.90;;;;;;5051430;28;20175;-73
2023/01/22 08:05:01;;;;;;;14.50;8.97;;;2.70;99.90;;;;;;5052237;28;20405;-73
2023/01/22 08:07:26;;;;;;;15.10;9.80;;;2.70;99.90;;;;;;5052488;28;20502;-73
2023/01/22 08:09:52;;;;;;;13.30;8.57;;;2.80;99.90;;;;;;5052397;28;20194;-73
2023/01/22 08:12:17;;;;;;;11.90;7.77;;;2.70;99.90;;;;;;5069402;28;20170;-72
2023/01/22 08:14:43;;;;;;;13.27;8.50;;;2.80;99.90;;;;;;5072032;28;20158;-73
2023/01/22 08:17:08;;;;;;;16.13;9.20;;;2.80;99.90;;;;;;5070966;28;20173;-73
2023/01/22 08:19:34;;;;;;;12.20;8.30;;;2.80;99.90;;;;;;5070651;28;20215;-73
2023/01/22 08:21:59;;;;;;;12.73;8.07;;;2.80;99.90;;;;;;5073521;28;20175;-73
2023/01/22 08:24:25;;;;;;;13.47;8.20;;;2.90;99.90;;;;;;5051843;28;20175;-73
2023/01/22 08:26:51;;;;;;;15.53;9.50;;;2.90;99.90;;;;;;5052077;28;20228;-73
2023/01/22 08:29:16;;;;;;;13.63;8.67;;;2.90;99.90;;;;;;5051947;28;20216;-73
2023/01/22 08:31:42;;;;;;;12.90;8.53;;;2.90;99.90;;;;;;5052184;28;20259;-73
2023/01/22 08:34:07;;;;;;;11.60;8.80;;;2.90;99.90;;;;;;5067336;28;20170;-73
2023/01/22 08:36:33;;;;;;;11.10;8.23;;;2.90;99.90;;;;;;5070503;28;20256;-73
2023/01/22 08:38:58;;;;;;;9.47;6.90;;;3.00;99.90;;;;;;5070663;28;20234;-73
2023/01/22 08:41:24;;;;;;;10.33;7.23;;;3.00;99.90;;;;;;5072085;28;20173;-73
2023/01/22 08:43:52;;;;;;;13.20;9.30;;;3.00;99.90;;;;;;5071976;28;20174;-73
2023/01/22 08:46:18;;;;;;;9.87;7.87;;;3.10;99.90;;;;;;5056781;28;20588;-73
2023/01/22 08:48:44;;;;;;;11.57;8.07;;;3.10;99.90;;;;;;5051702;28;20509;-73
2023/01/22 08:51:11;;;;;;;9.70;7.93;;;3.10;99.90;;;;;;5052022;28;20262;-73
2023/01/22 08:53:37;;;;;;;10.73;7.83;;;3.10;99.90;;;;;;5051904;28;20171;-73
2023/01/22 08:56:03;;;;;;;8.67;7.50;;;3.10;99.90;;;;;;5051608;28;20461;-73
2023/01/22 08:58:28;;;;;;;9.50;7.30;;;3.10;99.90;;;;;;5066732;28;20811;-73
2023/01/22 09:00:54;;;;;;;11.00;7.40;;;3.10;99.90;;;;;;5071601;28;20488;-73
2023/01/22 09:03:20;;;;;;;12.40;7.93;;;3.20;99.90;;;;;;5071612;28;20196;-73
2023/01/22 09:05:46;;;;;;;11.40;7.20;;;3.20;99.90;;;;;;5071162;28;20531;-73
2023/01/22 09:08:12;;;;;;;8.60;7.03;;;3.20;99.90;;;;;;5071775;28;20438;-73
2023/01/22 09:10:38;;;;;;;8.63;7.03;;;3.20;99.90;;;;;;5055261;28;20203;-73
2023/01/22 09:13:03;;;;;;;9.63;6.90;;;3.20;99.90;;;;;;5051643;28;20163;-73
2023/01/22 09:15:29;;;;;;;8.07;6.80;;;3.30;99.90;;;;;;5051580;28;20524;-73
2023/01/22 09:17:55;;;;;;;11.90;7.63;;;3.30;99.90;;;;;;5051556;28;20687;-73
2023/01/22 09:20:20;;;;;;;11.87;8.33;;;3.40;99.90;;;;;;5051640;28;20167;-73
2023/01/22 09:22:47;;;;;;;9.90;8.10;;;3.40;99.90;;;;;;5069758;28;20419;-73
2023/01/22 09:25:14;;;;;;;10.03;7.17;;;3.40;99.90;;;;;;5071410;28;20216;-73
2023/01/22 09:27:39;;;;;;;8.93;6.80;;;3.40;99.90;;;;;;5071554;28;20428;-73
2023/01/22 09:30:05;;;;;;;11.70;7.23;;;3.50;99.90;;;;;;5071505;28;20440;-73
2023/01/22 09:32:31;;;;;;;8.87;7.20;;;3.50;99.90;;;;;;5068250;28;20179;-73
2023/01/22 09:34:56;;;;;;;8.43;6.63;;;3.50;99.90;;;;;;5060699;28;20416;-73
2023/01/22 09:37:24;;;;;;;8.67;7.30;;;3.60;99.90;;;;;;5085986;28;20190;-73
2023/01/22 09:39:50;;;;;;;7.90;7.00;;;3.70;99.90;;;;;;5071575;28;20194;-73
2023/01/22 09:42:36;;;;;;;10.90;7.80;;;3.80;99.90;;;;;;5071384;28;20431;-73
2023/01/22 09:45:13;;;;;;;9.50;7.43;;;4.00;99.90;;;;;;5064392;28;20417;-73
2023/01/22 09:47:50;;;;;;;10.50;6.63;;;4.20;99.90;;;;;;5054422;28;21104;-73
2023/01/22 09:50:26;;;;;;;15.57;7.53;;;4.30;99.90;;;;;;5055235;28;20873;-73
2023/01/22 09:52:55;;;;;;;10.60;8.17;;;4.40;99.90;;;;;;5056397;28;20781;-73
2023/01/22 09:55:23;;;;;;;11.43;7.90;;;4.50;99.90;;;;;;5054803;28;20437;-74
2023/01/22 09:57:54;;;;;;;10.30;7.63;;;4.60;99.90;;;;;;5053616;28;20467;-73
2023/01/22 10:00:40;;;;;;;12.10;7.30;;;4.70;99.90;;;;;;5055101;28;20420;-73
2023/01/22 10:03:20;;;;;;;13.57;7.93;;;4.70;99.90;;;;;;5061335;28;20410;-73
2023/01/22 10:05:55;;;;;;;13.20;7.80;;;4.80;99.90;;;;;;5074624;28;20467;-73
2023/01/22 10:08:24;;;;;;;9.03;7.90;;;4.90;99.90;;;;;;5074772;28;20412;-73
2023/01/22 10:10:51;;;;;;;12.83;6.87;;;5.00;99.90;;;;;;5070018;28;20453;-73
2023/01/22 10:13:23;;;;;;;10.83;8.17;;;5.00;99.90;;;;;;5054681;28;20402;-73
2023/01/22 10:15:50;;;;;;;13.70;8.53;;;5.10;99.90;;;;;;5054633;28;20402;-73
2023/01/22 10:18:28;;;;;;;9.77;6.53;;;5.10;99.90;;;;;;5053472;28;20441;-73
2023/01/22 10:20:54;;;;;;;13.17;8.60;;;5.10;99.90;;;;;;5072676;28;20503;-73
2023/01/22 10:23:24;;;;;;;12.33;7.37;;;5.20;99.90;;;;;;5074606;28;20452;-73
2023/01/22 10:25:53;;;;;;;12.53;9.23;;;5.20;99.90;;;;;;5073024;28;20420;-73
2023/01/22 10:28:24;;;;;;;12.37;8.10;;;5.20;99.90;;;;;;5074444;28;20541;-73
2023/01/22 10:30:51;;;;;;;10.93;8.13;;;5.10;99.90;;;;;;5056232;28;20491;-73
2023/01/22 10:33:22;;;;;;;10.87;7.00;;;5.00;99.90;;;;;;5053171;28;20786;-73
2023/01/22 10:35:50;;;;;;;11.00;7.70;;;5.00;99.90;;;;;;5052781;28;20409;-73
2023/01/22 10:38:23;;;;;;;12.90;9.03;;;5.00;99.90;;;;;;5054230;28;20452;-73
2023/01/22 10:41:00;;;;;;;12.00;7.90;;;5.10;99.90;;;;;;5054136;28;20439;-73
2023/01/22 10:43:37;;;;;;;10.93;8.07;;;5.10;99.90;;;;;;5052936;28;20484;-73
2023/01/22 10:46:15;;;;;;;11.87;7.57;;;5.20;99.90;;;;;;5053844;28;20413;-73
2023/01/22 10:48:40;;;;;;;8.97;6.67;;;5.10;99.90;;;;;;5055956;28;20630;-73
2023/01/22 10:51:18;;;;;;;8.90;6.77;;;5.10;99.90;;;;;;5072759;28;20424;-73
2023/01/22 10:53:50;;;;;;;9.93;8.17;;;5.10;99.90;;;;;;5069055;28;20559;-73
2023/01/22 10:56:30;;;;;;;8.83;6.80;;;5.10;99.90;;;;;;5053521;28;20441;-73
2023/01/22 10:58:56;;;;;;;10.23;7.40;;;5.10;99.90;;;;;;5053931;28;20792;-73
2023/01/22 11:01:36;;;;;;;8.87;6.87;;;5.00;99.90;;;;;;5053888;28;20452;-73
2023/01/22 11:04:22;;;;;;;12.20;7.63;;;5.10;99.90;;;;;;5053813;28;20926;-73
2023/01/22 11:06:59;;;;;;;11.20;7.37;;;5.10;99.90;;;;;;5065930;28;20452;-74
2023/01/22 11:09:46;;;;;;;10.60;7.80;;;5.10;99.90;;;;;;5073706;28;20501;-73
2023/01/22 11:12:33;;;;;;;9.90;7.00;;;5.10;99.90;;;;;;5073539;28;20491;-73
2023/01/22 11:15:20;;;;;;;11.13;8.10;;;5.20;99.90;;;;;;5073502;28;20435;-73
2023/01/22 11:17:56;;;;;;;9.27;7.07;;;5.30;99.90;;;;;;5068835;28;20433;-74
2023/01/22 11:20:43;;;;;;;13.50;7.63;;;5.40;99.90;;;;;;5053643;28;20424;-73
2023/01/22 11:23:08;;;;;;;14.13;7.90;;;5.40;99.90;;;;;;5053466;28;20980;-73
2023/01/22 11:25:44;;;;;;;13.57;8.87;;;5.40;99.90;;;;;;5053072;28;20451;-73
2023/01/22 11:28:40;;;;;;;8.90;7.73;;;5.40;99.90;;;;;;5053347;28;20233;-73
2023/01/22 11:31:26;;;;;;;12.70;9.23;;;5.40;99.90;;;;;;5067248;28;20484;-73
2023/01/22 11:34:30;;;;;;;10.10;7.27;;;5.40;99.90;;;;;;5072622;28;20417;-73
2023/01/22 11:36:58;;;;;;;18.00;8.93;;;5.30;99.90;;;;;;5073205;28;20407;-73
2023/01/22 11:39:36;;;;;;;10.23;7.10;;;5.30;99.90;;;;;;5073079;28;20788;-73
2023/01/22 11:42:24;;;;;;;14.20;8.03;;;5.30;99.90;;;;;;5068176;28;20471;-73
2023/01/22 11:44:58;;;;;;;10.67;8.57;;;5.20;99.90;;;;;;5072659;28;20918;-73
2023/01/22 11:47:57;;;;;;;13.07;8.40;;;5.10;99.90;;;;;;5072924;28;20527;-73
2023/01/22 11:50:25;;;;;;;11.10;6.80;;;5.00;99.90;;;;;;5072096;28;20945;-73
2023/01/22 11:53:16;;;;;;;14.63;9.80;;;5.00;99.90;;;;;;5063553;28;20424;-73
2023/01/22 11:56:00;;;;;;;13.67;8.47;;;4.90;99.90;;;;;;5051142;28;20417;-73
2023/01/22 11:58:40;;;;;;;13.20;8.40;;;4.80;99.90;;;;;;5051467;28;20437;-73
2023/01/22 12:01:20;;;;;;;15.13;9.00;;;4.70;99.90;;;;;;5052762;28;20449;-73
2023/01/22 12:03:57;;;;;;;14.23;8.90;;;4.60;99.90;;;;;;5051903;28;20741;-73
2023/01/22 12:06:49;;;;;;;11.10;8.87;;;4.60;99.90;;;;;;5071948;28;20423;-73
2023/01/22 12:09:40;;;;;;;15.07;9.33;;;4.50;99.90;;;;;;5071862;28;20448;-73
2023/01/22 12:12:13;;;;;;;14.03;9.00;;;4.50;99.90;;;;;;5072135;28;20434;-73
2023/01/22 12:14:59;;;;;;;12.13;8.60;;;4.40;99.90;;;;;;5071970;28;20475;-73
2023/01/22 12:17:33;;;;;;;9.27;7.83;;;4.40;99.90;;;;;;5071315;28;20798;-73
2023/01/22 12:20:22;;;;;;;14.07;7.67;;;4.40;99.90;;;;;;5072334;28;20466;-73
2023/01/22 12:22:59;;;;;;;10.13;7.40;;;4.40;99.90;;;;;;5050851;28;20420;-73
2023/01/22 12:25:37;;;;;;;15.07;9.00;;;4.40;99.90;;;;;;5070362;28;20416;-73
2023/01/22 12:28:20;;;;;;;16.23;9.60;;;4.40;99.90;;;;;;5071881;28;20436;-73
2023/01/22 12:31:09;;;;;;;15.00;8.97;;;4.40;99.90;;;;;;5051913;28;20456;-73
2023/01/22 12:33:40;;;;;;;12.20;8.60;;;4.40;99.90;;;;;;5058849;28;20415;-74
2023/01/22 12:36:09;;;;;;;11.60;7.40;;;4.50;99.90;;;;;;5051705;28;20480;-73
2023/01/22 12:38:59;;;;;;;15.97;10.13;;;4.60;99.90;;;;;;5050350;28;20966;-73
2023/01/22 12:41:51;;;;;;;13.57;8.73;;;4.60;99.90;;;;;;5052106;28;20425;-73
2023/01/22 12:44:29;;;;;;;10.83;7.37;;;4.60;99.90;;;;;;5051467;28;20463;-73
2023/01/22 12:47:09;;;;;;;10.57;8.27;;;4.70;99.90;;;;;;5051656;28;20439;-73
2023/01/22 12:49:48;;;;;;;15.90;9.27;;;4.70;99.90;;;;;;5051676;28;20449;-73
2023/01/22 12:52:35;;;;;;;12.23;8.40;;;4.70;99.90;;;;;;5050286;28;20420;-73
2023/01/22 12:55:03;;;;;;;21.20;9.30;;;4.80;99.90;;;;;;5050095;28;20821;-73
2023/01/22 12:57:40;;;;;;;12.03;8.80;;;4.80;99.90;;;;;;5051403;28;20519;-73
2023/01/22 13:00:21;;;;;;;10.00;7.87;;;4.80;99.90;;;;;;5051558;28;20413;-73
2023/01/22 13:02:46;;;;;;;12.60;8.73;;;4.90;99.90;;;;;;5051387;28;20412;-73
2023/01/22 13:05:37;;;;;;;11.77;8.87;;;4.90;99.90;;;;;;5051565;28;20425;-73
2023/01/22 13:08:25;;;;;;;13.70;9.13;;;4.90;99.90;;;;;;5051442;28;20197;-73